sensor_id;sensor_type;location;lat;lon;timestamp;pressure;altitude;pressure_sealevel;temperature;humidity
44138;BME280;29800;55.942;37.314;2023-04-24T00:00:41;99457.34;;;7.56;57.92
44138;BME280;29800;55.942;37.314;2023-04-24T00:03:10;99458.16;;;7.57;57.73
44138;BME280;29800;55.942;37.314;2023-04-24T00:05:38;99460.53;;;7.53;58.37
44138;BME280;29800;55.942;37.314;2023-04-24T00:08:06;99452.00;;;7.49;57.87
44138;BME280;29800;55.942;37.314;2023-04-24T00:10:32;99455.78;;;7.48;58.14
44138;BME280;29800;55.942;37.314;2023-04-24T00:12:58;99462.28;;;7.47;58.40
44138;BME280;29800;55.942;37.314;2023-04-24T00:15:25;99456.72;;;7.42;58.14
44138;BME280;29800;55.942;37.314;2023-04-24T00:17:51;99447.72;;;7.42;57.64
44138;BME280;29800;55.942;37.314;2023-04-24T00:20:19;99447.84;;;7.47;58.05
44138;BME280;29800;55.942;37.314;2023-04-24T00:22:45;99454.59;;;7.44;58.29
44138;BME280;29800;55.942;37.314;2023-04-24T00:25:11;99448.19;;;7.39;57.55
44138;BME280;29800;55.942;37.314;2023-04-24T00:27:38;99461.22;;;7.36;58.05
44138;BME280;29800;55.942;37.314;2023-04-24T00:30:05;99454.81;;;7.31;59.00
44138;BME280;29800;55.942;37.314;2023-04-24T00:32:32;99458.63;;;7.30;59.19
44138;BME280;29800;55.942;37.314;2023-04-24T00:34:58;99456.59;;;7.25;59.00
44138;BME280;29800;55.942;37.314;2023-04-24T00:37:25;99461.31;;;7.18;59.28
44138;BME280;29800;55.942;37.314;2023-04-24T00:39:51;99452.19;;;7.12;59.16
44138;BME280;29800;55.942;37.314;2023-04-24T00:42:17;99461.41;;;7.11;59.65
44138;BME280;29800;55.942;37.314;2023-04-24T00:44:44;99457.06;;;7.10;59.35
44138;BME280;29800;55.942;37.314;2023-04-24T00:47:11;99456.69;;;7.07;59.24
44138;BME280;29800;55.942;37.314;2023-04-24T00:49:38;99451.25;;;7.07;59.62
44138;BME280;29800;55.942;37.314;2023-04-24T00:52:04;99455.25;;;7.04;59.83
44138;BME280;29800;55.942;37.314;2023-04-24T00:54:33;99455.72;;;7.01;59.46
44138;BME280;29800;55.942;37.314;2023-04-24T00:57:01;99460.59;;;6.99;60.19
44138;BME280;29800;55.942;37.314;2023-04-24T00:59:28;99457.72;;;6.94;60.48
44138;BME280;29800;55.942;37.314;2023-04-24T01:01:55;99453.00;;;6.89;59.93
44138;BME280;29800;55.942;37.314;2023-04-24T01:04:22;99448.25;;;6.85;60.41
44138;BME280;29800;55.942;37.314;2023-04-24T01:06:49;99450.97;;;6.85;60.18
44138;BME280;29800;55.942;37.314;2023-04-24T01:09:16;99457.00;;;6.87;60.29
44138;BME280;29800;55.942;37.314;2023-04-24T01:11:44;99454.84;;;6.77;60.46
44138;BME280;29800;55.942;37.314;2023-04-24T01:14:11;99454.47;;;6.73;60.40
44138;BME280;29800;55.942;37.314;2023-04-24T01:16:37;99446.19;;;6.68;60.85
44138;BME280;29800;55.942;37.314;2023-04-24T01:19:06;99449.13;;;6.67;60.81
44138;BME280;29800;55.942;37.314;2023-04-24T01:21:36;99445.59;;;6.66;60.88
44138;BME280;29800;55.942;37.314;2023-04-24T01:24:06;99441.19;;;6.65;60.72
44138;BME280;29800;55.942;37.314;2023-04-24T01:26:33;99444.63;;;6.60;60.68
44138;BME280;29800;55.942;37.314;2023-04-24T01:29:00;99445.91;;;6.58;60.63
44138;BME280;29800;55.942;37.314;2023-04-24T01:31:26;99439.84;;;6.56;60.47
44138;BME280;29800;55.942;37.314;2023-04-24T01:33:53;99435.50;;;6.55;61.56
44138;BME280;29800;55.942;37.314;2023-04-24T01:36:21;99446.38;;;6.55;60.99
44138;BME280;29800;55.942;37.314;2023-04-24T01:38:48;99433.00;;;6.53;61.42
44138;BME280;29800;55.942;37.314;2023-04-24T01:41:15;99433.84;;;6.54;61.10
44138;BME280;29800;55.942;37.314;2023-04-24T01:43:41;99438.22;;;6.55;60.95
44138;BME280;29800;55.942;37.314;2023-04-24T01:46:08;99435.50;;;6.55;61.06
44138;BME280;29800;55.942;37.314;2023-04-24T01:48:35;99432.19;;;6.53;61.39
44138;BME280;29800;55.942;37.314;2023-04-24T01:51:02;99438.81;;;6.57;61.12
44138;BME280;29800;55.942;37.314;2023-04-24T01:53:29;99426.75;;;6.53;60.86
44138;BME280;29800;55.942;37.314;2023-04-24T01:55:56;99437.63;;;6.53;61.18
44138;BME280;29800;55.942;37.314;2023-04-24T01:58:25;99425.09;;;6.52;60.72
44138;BME280;29800;55.942;37.314;2023-04-24T02:00:52;99426.75;;;6.53;60.80
44138;BME280;29800;55.942;37.314;2023-04-24T02:03:18;99433.25;;;6.52;60.33
44138;BME280;29800;55.942;37.314;2023-04-24T02:05:44;99422.81;;;6.49;60.79
44138;BME280;29800;55.942;37.314;2023-04-24T02:08:11;99434.91;;;6.53;60.34
44138;BME280;29800;55.942;37.314;2023-04-24T02:10:37;99428.84;;;6.51;60.04
44138;BME280;29800;55.942;37.314;2023-04-24T02:13:04;99435.22;;;6.44;60.83
44138;BME280;29800;55.942;37.314;2023-04-24T02:15:31;99440.50;;;6.39;60.68
44138;BME280;29800;55.942;37.314;2023-04-24T02:17:57;99442.28;;;6.34;61.09
44138;BME280;29800;55.942;37.314;2023-04-24T02:20:24;99441.44;;;6.33;61.52
44138;BME280;29800;55.942;37.314;2023-04-24T02:22:50;99439.03;;;6.25;61.74
44138;BME280;29800;55.942;37.314;2023-04-24T02:25:17;99441.00;;;6.18;61.53
44138;BME280;29800;55.942;37.314;2023-04-24T02:27:43;99437.56;;;6.11;61.19
44138;BME280;29800;55.942;37.314;2023-04-24T02:30:10;99448.06;;;6.07;61.71
44138;BME280;29800;55.942;37.314;2023-04-24T02:32:36;99446.59;;;6.04;62.05
44138;BME280;29800;55.942;37.314;2023-04-24T02:35:05;99451.00;;;6.05;61.83
44138;BME280;29800;55.942;37.314;2023-04-24T02:37:31;99442.84;;;6.05;62.01
44138;BME280;29800;55.942;37.314;2023-04-24T02:39:58;99447.69;;;6.03;62.13
44138;BME280;29800;55.942;37.314;2023-04-24T02:42:24;99453.16;;;5.97;62.34
44138;BME280;29800;55.942;37.314;2023-04-24T02:44:51;99454.00;;;5.97;63.00
44138;BME280;29800;55.942;37.314;2023-04-24T02:47:17;99450.22;;;5.98;62.73
44138;BME280;29800;55.942;37.314;2023-04-24T02:49:43;99452.25;;;6.03;62.99
44138;BME280;29800;55.942;37.314;2023-04-24T02:52:10;99457.47;;;6.04;63.05
44138;BME280;29800;55.942;37.314;2023-04-24T02:54:36;99466.22;;;6.06;62.92
44138;BME280;29800;55.942;37.314;2023-04-24T02:57:03;99460.34;;;6.10;63.07
44138;BME280;29800;55.942;37.314;2023-04-24T02:59:30;99460.34;;;6.10;62.99
44138;BME280;29800;55.942;37.314;2023-04-24T03:01:56;99460.97;;;6.12;62.96
44138;BME280;29800;55.942;37.314;2023-04-24T03:04:22;99459.50;;;6.09;63.05
44138;BME280;29800;55.942;37.314;2023-04-24T03:06:49;99463.69;;;6.12;63.34
44138;BME280;29800;55.942;37.314;2023-04-24T03:09:20;99462.97;;;6.16;62.89
44138;BME280;29800;55.942;37.314;2023-04-24T03:11:47;99470.06;;;6.17;62.79
44138;BME280;29800;55.942;37.314;2023-04-24T03:14:15;99466.09;;;6.20;62.64
44138;BME280;29800;55.942;37.314;2023-04-24T03:16:42;99466.38;;;6.30;62.36
44138;BME280;29800;55.942;37.314;2023-04-24T03:19:08;99462.50;;;6.38;62.11
44138;BME280;29800;55.942;37.314;2023-04-24T03:21:42;99465.47;;;6.36;62.13
44138;BME280;29800;55.942;37.314;2023-04-24T03:24:10;99468.84;;;6.32;61.92
44138;BME280;29800;55.942;37.314;2023-04-24T03:26:37;99477.31;;;6.23;62.18
44138;BME280;29800;55.942;37.314;2023-04-24T03:29:26;99467.94;;;6.19;62.57
44138;BME280;29800;55.942;37.314;2023-04-24T03:31:52;99477.41;;;6.17;62.63
44138;BME280;29800;55.942;37.314;2023-04-24T03:34:19;99471.13;;;6.16;63.27
44138;BME280;29800;55.942;37.314;2023-04-24T03:36:46;99472.44;;;6.14;63.25
44138;BME280;29800;55.942;37.314;2023-04-24T03:39:15;99475.75;;;6.16;63.37
44138;BME280;29800;55.942;37.314;2023-04-24T03:41:48;99474.84;;;6.22;63.92
44138;BME280;29800;55.942;37.314;2023-04-24T03:44:23;99476.41;;;6.30;63.96
44138;BME280;29800;55.942;37.314;2023-04-24T03:46:50;99479.66;;;6.38;64.08
44138;BME280;29800;55.942;37.314;2023-04-24T03:49:18;99477.66;;;6.46;64.07
44138;BME280;29800;55.942;37.314;2023-04-24T03:51:47;99480.66;;;6.56;64.14
44138;BME280;29800;55.942;37.314;2023-04-24T03:54:21;99492.41;;;6.68;63.49
44138;BME280;29800;55.942;37.314;2023-04-24T03:56:49;99479.72;;;6.80;63.38
44138;BME280;29800;55.942;37.314;2023-04-24T03:59:16;99486.59;;;6.95;63.17
44138;BME280;29800;55.942;37.314;2023-04-24T04:01:46;99481.56;;;7.10;62.96
44138;BME280;29800;55.942;37.314;2023-04-24T04:04:15;99485.00;;;7.29;62.43
44138;BME280;29800;55.942;37.314;2023-04-24T04:06:43;99480.88;;;7.50;59.74
44138;BME280;29800;55.942;37.314;2023-04-24T04:09:10;99477.31;;;7.73;58.41
44138;BME280;29800;55.942;37.314;2023-04-24T04:11:37;99486.31;;;7.98;57.79
44138;BME280;29800;55.942;37.314;2023-04-24T04:14:05;99485.41;;;8.33;60.07
44138;BME280;29800;55.942;37.314;2023-04-24T04:16:33;99486.28;;;8.62;58.61
44138;BME280;29800;55.942;37.314;2023-04-24T04:19:02;99482.22;;;8.93;58.59
44138;BME280;29800;55.942;37.314;2023-04-24T04:21:29;99484.41;;;9.25;57.88
44138;BME280;29800;55.942;37.314;2023-04-24T04:24:08;99487.66;;;9.56;56.71
44138;BME280;29800;55.942;37.314;2023-04-24T04:26:42;99482.97;;;9.90;54.78
44138;BME280;29800;55.942;37.314;2023-04-24T04:29:13;99488.25;;;10.19;53.11
44138;BME280;29800;55.942;37.314;2023-04-24T04:31:43;99478.44;;;10.40;51.85
44138;BME280;29800;55.942;37.314;2023-04-24T04:34:12;99489.63;;;10.61;50.61
44138;BME280;29800;55.942;37.314;2023-04-24T04:36:41;99487.66;;;10.83;50.89
44138;BME280;29800;55.942;37.314;2023-04-24T04:39:31;99493.09;;;11.06;50.19
44138;BME280;29800;55.942;37.314;2023-04-24T04:42:04;99491.63;;;11.25;49.42
44138;BME280;29800;55.942;37.314;2023-04-24T04:44:41;99491.75;;;11.40;47.93
44138;BME280;29800;55.942;37.314;2023-04-24T04:47:11;99492.16;;;11.54;48.19
44138;BME280;29800;55.942;37.314;2023-04-24T04:49:38;99492.34;;;11.85;50.11
44138;BME280;29800;55.942;37.314;2023-04-24T04:52:09;99480.97;;;12.04;48.12
44138;BME280;29800;55.942;37.314;2023-04-24T04:54:36;99479.69;;;12.22;46.73
44138;BME280;29800;55.942;37.314;2023-04-24T04:57:02;99485.28;;;12.53;47.32
44138;BME280;29800;55.942;37.314;2023-04-24T04:59:30;99487.03;;;12.79;47.19
44138;BME280;29800;55.942;37.314;2023-04-24T05:02:02;99491.72;;;12.89;45.25
44138;BME280;29800;55.942;37.314;2023-04-24T05:04:30;99488.72;;;13.06;45.36
44138;BME280;29800;55.942;37.314;2023-04-24T05:06:59;99479.66;;;13.31;46.24
44138;BME280;29800;55.942;37.314;2023-04-24T05:09:28;99483.56;;;13.40;43.51
44138;BME280;29800;55.942;37.314;2023-04-24T05:12:01;99481.91;;;13.50;44.20
44138;BME280;29800;55.942;37.314;2023-04-24T05:14:31;99483.00;;;13.54;43.33
44138;BME280;29800;55.942;37.314;2023-04-24T05:16:58;99493.72;;;13.60;43.17
44138;BME280;29800;55.942;37.314;2023-04-24T05:19:26;99493.16;;;13.74;42.63
44138;BME280;29800;55.942;37.314;2023-04-24T05:21:52;99496.72;;;13.90;42.10
44138;BME280;29800;55.942;37.314;2023-04-24T05:24:19;99487.63;;;14.00;41.28
44138;BME280;29800;55.942;37.314;2023-04-24T05:26:59;99493.38;;;14.13;42.50
44138;BME280;29800;55.942;37.314;2023-04-24T05:29:32;99493.91;;;14.15;40.30
44138;BME280;29800;55.942;37.314;2023-04-24T05:31:59;99493.38;;;14.13;40.51
44138;BME280;29800;55.942;37.314;2023-04-24T05:34:28;99488.97;;;14.12;40.30
44138;BME280;29800;55.942;37.314;2023-04-24T05:36:56;99486.47;;;14.11;40.47
44138;BME280;29800;55.942;37.314;2023-04-24T05:39:22;99486.19;;;14.18;40.60
44138;BME280;29800;55.942;37.314;2023-04-24T05:41:51;99485.06;;;14.24;40.40
44138;BME280;29800;55.942;37.314;2023-04-24T05:44:17;99487.53;;;14.30;40.14
44138;BME280;29800;55.942;37.314;2023-04-24T05:46:44;99494.09;;;14.40;39.47
44138;BME280;29800;55.942;37.314;2023-04-24T05:49:11;99486.88;;;14.49;39.33
44138;BME280;29800;55.942;37.314;2023-04-24T05:51:37;99481.63;;;14.58;39.21
44138;BME280;29800;55.942;37.314;2023-04-24T05:54:06;99485.44;;;14.72;38.67
44138;BME280;29800;55.942;37.314;2023-04-24T05:56:32;99487.88;;;14.84;38.88
44138;BME280;29800;55.942;37.314;2023-04-24T05:59:03;99496.59;;;14.96;38.45
44138;BME280;29800;55.942;37.314;2023-04-24T06:01:30;99484.41;;;15.07;38.46
44138;BME280;29800;55.942;37.314;2023-04-24T06:04:06;99488.97;;;15.22;38.48
44138;BME280;29800;55.942;37.314;2023-04-24T06:06:32;99490.53;;;15.34;38.20
44138;BME280;29800;55.942;37.314;2023-04-24T06:08:59;99486.56;;;15.50;37.83
44138;BME280;29800;55.942;37.314;2023-04-24T06:11:27;99479.84;;;15.61;37.36
44138;BME280;29800;55.942;37.314;2023-04-24T06:13:53;99478.34;;;15.74;37.20
44138;BME280;29800;55.942;37.314;2023-04-24T06:16:55;99485.66;;;15.89;36.29
44138;BME280;29800;55.942;37.314;2023-04-24T06:19:31;99481.69;;;16.01;35.96
44138;BME280;29800;55.942;37.314;2023-04-24T06:21:57;99486.00;;;16.12;36.27
44138;BME280;29800;55.942;37.314;2023-04-24T06:24:28;99482.75;;;16.29;36.10
44138;BME280;29800;55.942;37.314;2023-04-24T06:26:54;99475.94;;;16.45;34.82
44138;BME280;29800;55.942;37.314;2023-04-24T06:29:22;99479.97;;;16.72;34.53
44138;BME280;29800;55.942;37.314;2023-04-24T06:31:50;99476.13;;;16.92;33.80
44138;BME280;29800;55.942;37.314;2023-04-24T06:34:16;99489.25;;;17.05;33.54
44138;BME280;29800;55.942;37.314;2023-04-24T06:36:43;99485.78;;;17.14;32.92
44138;BME280;29800;55.942;37.314;2023-04-24T06:39:09;99485.63;;;17.24;32.74
44138;BME280;29800;55.942;37.314;2023-04-24T06:41:36;99488.97;;;17.40;32.32
44138;BME280;29800;55.942;37.314;2023-04-24T06:44:02;99488.00;;;17.50;32.30
44138;BME280;29800;55.942;37.314;2023-04-24T06:46:28;99486.66;;;17.61;32.31
44138;BME280;29800;55.942;37.314;2023-04-24T06:48:55;99487.53;;;17.75;31.33
44138;BME280;29800;55.942;37.314;2023-04-24T06:51:24;99482.94;;;17.85;30.83
44138;BME280;29800;55.942;37.314;2023-04-24T06:53:52;99479.31;;;18.03;30.69
44138;BME280;29800;55.942;37.314;2023-04-24T06:56:19;99485.06;;;18.21;30.05
44138;BME280;29800;55.942;37.314;2023-04-24T06:58:46;99485.38;;;18.33;30.16
44138;BME280;29800;55.942;37.314;2023-04-24T07:01:12;99478.09;;;18.37;29.58
44138;BME280;29800;55.942;37.314;2023-04-24T07:03:39;99475.41;;;18.46;29.54
44138;BME280;29800;55.942;37.314;2023-04-24T07:06:06;99485.97;;;18.58;29.43
44138;BME280;29800;55.942;37.314;2023-04-24T07:08:32;99485.47;;;18.69;29.53
44138;BME280;29800;55.942;37.314;2023-04-24T07:10:59;99495.50;;;18.79;29.08
44138;BME280;29800;55.942;37.314;2023-04-24T07:13:26;99487.25;;;19.02;28.81
44138;BME280;29800;55.942;37.314;2023-04-24T07:15:54;99495.72;;;19.19;28.68
44138;BME280;29800;55.942;37.314;2023-04-24T07:18:22;99493.84;;;19.28;28.25
44138;BME280;29800;55.942;37.314;2023-04-24T07:20:48;99490.88;;;19.47;27.73
44138;BME280;29800;55.942;37.314;2023-04-24T07:23:16;99497.50;;;19.60;27.68
44138;BME280;29800;55.942;37.314;2023-04-24T07:25:43;99488.72;;;19.67;27.84
44138;BME280;29800;55.942;37.314;2023-04-24T07:28:10;99490.25;;;19.73;27.08
44138;BME280;29800;55.942;37.314;2023-04-24T07:30:36;99490.31;;;19.82;27.41
44138;BME280;29800;55.942;37.314;2023-04-24T07:33:02;99491.31;;;19.86;28.06
44138;BME280;29800;55.942;37.314;2023-04-24T07:35:29;99497.50;;;19.83;26.52
44138;BME280;29800;55.942;37.314;2023-04-24T07:37:55;99490.31;;;19.82;26.35
44138;BME280;29800;55.942;37.314;2023-04-24T07:40:22;99490.00;;;19.83;27.00
44138;BME280;29800;55.942;37.314;2023-04-24T07:42:48;99491.25;;;19.77;26.91
44138;BME280;29800;55.942;37.314;2023-04-24T07:45:15;99494.25;;;19.81;27.20
44138;BME280;29800;55.942;37.314;2023-04-24T07:47:42;99492.44;;;19.85;26.50
44138;BME280;29800;55.942;37.314;2023-04-24T07:50:10;99492.44;;;19.85;26.33
44138;BME280;29800;55.942;37.314;2023-04-24T07:52:36;99494.09;;;19.86;27.70
44138;BME280;29800;55.942;37.314;2023-04-24T07:55:02;99488.28;;;19.96;27.23
44138;BME280;29800;55.942;37.314;2023-04-24T07:57:29;99482.97;;;20.17;25.62
44138;BME280;29800;55.942;37.314;2023-04-24T07:59:55;99483.00;;;20.26;25.62
44138;BME280;29800;55.942;37.314;2023-04-24T08:02:22;99479.44;;;20.34;26.13
44138;BME280;29800;55.942;37.314;2023-04-24T08:04:55;99484.34;;;20.29;24.67
44138;BME280;29800;55.942;37.314;2023-04-24T08:07:22;99468.66;;;20.33;23.78
44138;BME280;29800;55.942;37.314;2023-04-24T08:09:49;99486.78;;;20.30;23.83
44138;BME280;29800;55.942;37.314;2023-04-24T08:12:15;99482.97;;;20.17;24.73
44138;BME280;29800;55.942;37.314;2023-04-24T08:14:42;99481.31;;;20.08;24.60
44138;BME280;29800;55.942;37.314;2023-04-24T08:17:08;99478.34;;;20.04;24.53
44138;BME280;29800;55.942;37.314;2023-04-24T08:19:35;99486.03;;;20.07;24.97
44138;BME280;29800;55.942;37.314;2023-04-24T08:22:01;99478.19;;;20.00;24.09
44138;BME280;29800;55.942;37.314;2023-04-24T08:24:28;99477.47;;;19.95;23.65
44138;BME280;29800;55.942;37.314;2023-04-24T08:26:54;99475.72;;;19.99;23.76
44138;BME280;29800;55.942;37.314;2023-04-24T08:29:22;99480.22;;;20.26;24.38
44138;BME280;29800;55.942;37.314;2023-04-24T08:31:48;99468.88;;;20.54;25.14
44138;BME280;29800;55.942;37.314;2023-04-24T08:34:15;99466.16;;;20.71;23.23
44138;BME280;29800;55.942;37.314;2023-04-24T08:36:41;99465.19;;;20.76;23.52
44138;BME280;29800;55.942;37.314;2023-04-24T08:39:08;99467.09;;;20.58;23.49
44138;BME280;29800;55.942;37.314;2023-04-24T08:41:34;99467.69;;;20.37;24.03
44138;BME280;29800;55.942;37.314;2023-04-24T08:44:02;99471.88;;;20.26;25.06
44138;BME280;29800;55.942;37.314;2023-04-24T08:46:30;99468.88;;;20.05;25.00
44138;BME280;29800;55.942;37.314;2023-04-24T08:48:56;99464.16;;;20.06;24.76
44138;BME280;29800;55.942;37.314;2023-04-24T08:51:24;99464.63;;;20.08;24.09
44138;BME280;29800;55.942;37.314;2023-04-24T08:53:53;99463.38;;;20.14;24.89
44138;BME280;29800;55.942;37.314;2023-04-24T08:56:21;99454.78;;;20.42;24.22
44138;BME280;29800;55.942;37.314;2023-04-24T08:58:51;99452.03;;;20.59;24.05
44138;BME280;29800;55.942;37.314;2023-04-24T09:01:19;99444.09;;;20.75;24.85
44138;BME280;29800;55.942;37.314;2023-04-24T09:03:48;99455.53;;;20.73;24.62
44138;BME280;29800;55.942;37.314;2023-04-24T09:06:16;99443.53;;;20.55;24.07
44138;BME280;29800;55.942;37.314;2023-04-24T09:08:44;99451.84;;;20.47;24.29
44138;BME280;29800;55.942;37.314;2023-04-24T09:11:11;99444.34;;;20.56;24.25
44138;BME280;29800;55.942;37.314;2023-04-24T09:13:38;99441.16;;;20.80;23.69
44138;BME280;29800;55.942;37.314;2023-04-24T09:16:04;99437.72;;;21.09;24.08
44138;BME280;29800;55.942;37.314;2023-04-24T09:18:30;99438.69;;;21.22;23.93
44138;BME280;29800;55.942;37.314;2023-04-24T09:21:06;99439.16;;;21.33;23.29
44138;BME280;29800;55.942;37.314;2023-04-24T09:23:33;99438.19;;;21.38;24.24
44138;BME280;29800;55.942;37.314;2023-04-24T09:26:01;99431.13;;;21.32;22.26
44138;BME280;29800;55.942;37.314;2023-04-24T09:28:32;99436.88;;;21.35;23.18
44138;BME280;29800;55.942;37.314;2023-04-24T09:31:13;99435.09;;;21.30;23.53
44138;BME280;29800;55.942;37.314;2023-04-24T09:33:50;99424.81;;;21.14;23.12
44138;BME280;29800;55.942;37.314;2023-04-24T09:36:19;99425.47;;;21.10;24.06
44138;BME280;29800;55.942;37.314;2023-04-24T09:38:45;99422.34;;;21.12;23.87
44138;BME280;29800;55.942;37.314;2023-04-24T09:41:13;99415.28;;;21.23;23.62
44138;BME280;29800;55.942;37.314;2023-04-24T09:43:40;99416.91;;;21.24;22.83
44138;BME280;29800;55.942;37.314;2023-04-24T09:46:07;99410.38;;;21.20;22.76
44138;BME280;29800;55.942;37.314;2023-04-24T09:48:36;99406.47;;;21.13;22.42
44138;BME280;29800;55.942;37.314;2023-04-24T09:51:04;99408.06;;;21.31;23.42
44138;BME280;29800;55.942;37.314;2023-04-24T09:53:33;99402.97;;;21.51;24.35
44138;BME280;29800;55.942;37.314;2023-04-24T09:56:07;99399.97;;;21.73;22.85
44138;BME280;29800;55.942;37.314;2023-04-24T09:58:38;99398.03;;;22.03;22.16
44138;BME280;29800;55.942;37.314;2023-04-24T10:01:04;99390.88;;;22.32;22.36
44138;BME280;29800;55.942;37.314;2023-04-24T10:03:32;99397.69;;;22.44;22.18
44138;BME280;29800;55.942;37.314;2023-04-24T10:06:03;99390.47;;;22.43;21.84
44138;BME280;29800;55.942;37.314;2023-04-24T10:08:36;99387.41;;;22.27;20.66
44138;BME280;29800;55.942;37.314;2023-04-24T10:11:02;99392.75;;;22.11;21.18
44138;BME280;29800;55.942;37.314;2023-04-24T10:13:30;99379.75;;;22.24;22.01
44138;BME280;29800;55.942;37.314;2023-04-24T10:15:56;99390.88;;;22.32;21.71
44138;BME280;29800;55.942;37.314;2023-04-24T10:18:23;99385.22;;;22.41;22.30
44138;BME280;29800;55.942;37.314;2023-04-24T10:20:50;99393.06;;;22.48;21.75
44138;BME280;29800;55.942;37.314;2023-04-24T10:23:17;99389.66;;;22.42;20.98
44138;BME280;29800;55.942;37.314;2023-04-24T10:25:45;99389.00;;;22.45;21.67
44138;BME280;29800;55.942;37.314;2023-04-24T10:28:12;99383.47;;;22.57;21.51
44138;BME280;29800;55.942;37.314;2023-04-24T10:30:39;99385.47;;;22.57;20.92
44138;BME280;29800;55.942;37.314;2023-04-24T10:33:08;99371.56;;;22.69;21.07
44138;BME280;29800;55.942;37.314;2023-04-24T10:35:38;99372.78;;;23.02;20.96
44138;BME280;29800;55.942;37.314;2023-04-24T10:38:07;99380.13;;;23.27;20.64
44138;BME280;29800;55.942;37.314;2023-04-24T10:40:35;99373.16;;;23.34;21.78
44138;BME280;29800;55.942;37.314;2023-04-24T10:43:03;99378.06;;;23.37;20.88
44138;BME280;29800;55.942;37.314;2023-04-24T10:45:34;99362.75;;;23.55;19.80
44138;BME280;29800;55.942;37.314;2023-04-24T10:48:05;99365.78;;;23.75;20.06
44138;BME280;29800;55.942;37.314;2023-04-24T10:50:47;99359.25;;;23.71;19.21
44138;BME280;29800;55.942;37.314;2023-04-24T10:53:18;99357.38;;;23.50;19.60
44138;BME280;29800;55.942;37.314;2023-04-24T10:58:13;99351.78;;;23.62;19.97
44138;BME280;29800;55.942;37.314;2023-04-24T11:00:41;99361.34;;;23.61;19.85
44138;BME280;29800;55.942;37.314;2023-04-24T11:03:23;99361.09;;;23.54;19.37
44138;BME280;29800;55.942;37.314;2023-04-24T11:05:53;99364.22;;;23.07;18.98
44138;BME280;29800;55.942;37.314;2023-04-24T11:08:23;99356.22;;;22.63;20.17
44138;BME280;29800;55.942;37.314;2023-04-24T11:10:56;99351.16;;;22.35;20.52
44138;BME280;29800;55.942;37.314;2023-04-24T11:14:00;99347.53;;;22.05;20.68
44138;BME280;29800;55.942;37.314;2023-04-24T11:17:00;99345.94;;;22.04;21.13
44138;BME280;29800;55.942;37.314;2023-04-24T11:19:16;99342.53;;;22.19;21.40
44138;BME280;29800;55.942;37.314;2023-04-24T11:21:54;99332.47;;;22.36;20.46
44138;BME280;29800;55.942;37.314;2023-04-24T11:27:12;99343.97;;;22.76;20.93
44138;BME280;29800;55.942;37.314;2023-04-24T11:32:27;99328.72;;;22.74;20.19
44138;BME280;29800;55.942;37.314;2023-04-24T11:37:36;99329.53;;;22.74;20.18
44138;BME280;29800;55.942;37.314;2023-04-24T11:40:05;99324.56;;;22.59;19.84
44138;BME280;29800;55.942;37.314;2023-04-24T11:42:39;99317.31;;;22.46;20.43
44138;BME280;29800;55.942;37.314;2023-04-24T11:45:11;99325.81;;;22.19;20.66
44138;BME280;29800;55.942;37.314;2023-04-24T11:47:39;99316.22;;;22.08;21.65
44138;BME280;29800;55.942;37.314;2023-04-24T11:50:08;99314.50;;;21.95;20.89
44138;BME280;29800;55.942;37.314;2023-04-24T11:52:40;99309.84;;;21.78;20.71
44138;BME280;29800;55.942;37.314;2023-04-24T11:55:27;99304.56;;;21.55;21.30
44138;BME280;29800;55.942;37.314;2023-04-24T11:57:56;99305.41;;;21.38;21.43
44138;BME280;29800;55.942;37.314;2023-04-24T12:00:28;99300.31;;;21.49;21.41
44138;BME280;29800;55.942;37.314;2023-04-24T12:03:09;99291.34;;;21.73;21.50
44138;BME280;29800;55.942;37.314;2023-04-24T12:05:36;99289.47;;;22.16;21.38
44138;BME280;29800;55.942;37.314;2023-04-24T12:08:03;99280.47;;;22.40;20.37
44138;BME280;29800;55.942;37.314;2023-04-24T12:10:30;99292.13;;;22.54;20.55
44138;BME280;29800;55.942;37.314;2023-04-24T12:12:58;99278.78;;;22.81;20.62
44138;BME280;29800;55.942;37.314;2023-04-24T12:15:25;99288.38;;;23.05;20.85
44138;BME280;29800;55.942;37.314;2023-04-24T12:17:52;99279.00;;;23.22;19.47
44138;BME280;29800;55.942;37.314;2023-04-24T12:20:27;99278.47;;;23.28;20.01
44138;BME280;29800;55.942;37.314;2023-04-24T12:22:55;99277.66;;;23.40;19.36
44138;BME280;29800;55.942;37.314;2023-04-24T12:25:27;99284.06;;;23.41;19.91
44138;BME280;29800;55.942;37.314;2023-04-24T12:28:13;99283.47;;;23.47;19.69
44138;BME280;29800;55.942;37.314;2023-04-24T12:30:46;99279.75;;;23.31;19.03
44138;BME280;29800;55.942;37.314;2023-04-24T12:33:20;99281.22;;;23.16;19.11
44138;BME280;29800;55.942;37.314;2023-04-24T12:35:51;99274.13;;;22.85;19.62
44138;BME280;29800;55.942;37.314;2023-04-24T12:38:22;99278.94;;;22.64;19.54
44138;BME280;29800;55.942;37.314;2023-04-24T12:41:04;99273.72;;;22.41;19.82
44138;BME280;29800;55.942;37.314;2023-04-24T12:43:30;99266.66;;;22.44;19.89
44138;BME280;29800;55.942;37.314;2023-04-24T12:45:57;99268.13;;;22.62;20.60
44138;BME280;29800;55.942;37.314;2023-04-24T12:48:28;99261.34;;;22.84;19.64
44138;BME280;29800;55.942;37.314;2023-04-24T12:50:54;99261.84;;;22.99;20.03
44138;BME280;29800;55.942;37.314;2023-04-24T12:53:22;99254.16;;;22.95;19.71
44138;BME280;29800;55.942;37.314;2023-04-24T12:55:48;99265.41;;;22.87;20.08
44138;BME280;29800;55.942;37.314;2023-04-24T12:58:22;99260.50;;;22.71;20.15
44138;BME280;29800;55.942;37.314;2023-04-24T13:00:48;99263.50;;;22.66;20.39
44138;BME280;29800;55.942;37.314;2023-04-24T13:03:15;99256.03;;;22.58;19.60
44138;BME280;29800;55.942;37.314;2023-04-24T13:05:42;99257.13;;;22.45;20.51
44138;BME280;29800;55.942;37.314;2023-04-24T13:08:09;99249.31;;;22.38;20.43
44138;BME280;29800;55.942;37.314;2023-04-24T13:10:36;99258.00;;;22.15;20.55